Overview Statistics Trail Chart Weather Telemetry Raw packets
 

This is the latest recevied weather packets stored in our database for station/object N7IGG. If no packets are shown the sender has not sent any weather packets the latest 10 day(s).

<< 71 72 73 74 75 76 77 >>
Time Temp. Humidity Pressure Rain* Wind** Luminosity Snow
1777666402 16.67° C 77% 1016 hPa 0 mm - 701 W/m² -
1777666099 17.78° C 70% 1016 hPa 0 mm - 688 W/m² -
1777665796 17.22° C 76% 1016 hPa 0 mm - 640 W/m² -
1777665494 16.11° C 80% 1015.8 hPa 0 mm - 647 W/m² -
1777665189 16.11° C 80% 1016.1 hPa 0 mm - 639 W/m² -
1777664885 15° C 80% 1016.2 hPa 0 mm - 544 W/m² -
1777664581 15.56° C 80% 1016.2 hPa 0 mm - 476 W/m² -
1777664278 15.56° C 79% 1016.3 hPa 0 mm - 718 W/m² -
1777663977 15.56° C 80% 1016.3 hPa 0 mm - 402 W/m² -
1777663674 15° C 81% 1016.2 hPa 0 mm - 495 W/m² -
1777663370 15° C 82% 1016.4 hPa 0 mm - 503 W/m² -
1777663068 14.44° C 81% 1016.5 hPa 0 mm - 586 W/m² -
1777662765 14.44° C 81% 1016.4 hPa 0 mm - 530 W/m² -
1777662462 14.44° C 81% 1016.6 hPa 0 mm - 494 W/m² -
1777662157 15° C 80% 1016.6 hPa 0 mm - 469 W/m² -
1777661853 15° C 80% 1016.5 hPa 0 mm - 387 W/m² -
1777661549 14.44° C 80% 1016.5 hPa 0 mm - 385 W/m² -
1777661245 15° C 79% 1016.7 hPa 0 mm - 366 W/m² -
1777660941 15° C 77% 1016.6 hPa 0 mm - 351 W/m² -
1777660637 16.11° C 75% 1016.6 hPa 0 mm - 345 W/m² -
1777660334 16.11° C 76% 1016.5 hPa 0 mm - 306 W/m² -
1777660030 16.11° C 77% 1016.7 hPa 0 mm - 478 W/m² -
1777659727 16.11° C 79% 1016.6 hPa 0 mm - 400 W/m² -
1777659424 15.56° C 81% 1016.8 hPa 0 mm - 299 W/m² -
1777659121 15° C 82% 1016.7 hPa 0 mm - 393 W/m² -

* Rain latest hour (hover to see other rain measurements)
** Current wind speed in m/s (hover to see current wind gust speed)